sensor_id;sensor_type;location;lat;lon;timestamp;P1;durP1;ratioP1;P2;durP2;ratioP2
22070;SDS011;11200;51.488;6.668;2022-07-01T00:02:09;2.15;;;1.95;;
22070;SDS011;11200;51.488;6.668;2022-07-01T00:04:35;2.47;;;2.28;;
22070;SDS011;11200;51.488;6.668;2022-07-01T00:07:01;2.25;;;2.13;;
22070;SDS011;11200;51.488;6.668;2022-07-01T00:09:27;2.70;;;2.38;;
22070;SDS011;11200;51.488;6.668;2022-07-01T00:11:52;2.67;;;2.47;;
22070;SDS011;11200;51.488;6.668;2022-07-01T00:14:18;2.72;;;2.53;;
22070;SDS011;11200;51.488;6.668;2022-07-01T00:16:44;3.05;;;2.75;;
22070;SDS011;11200;51.488;6.668;2022-07-01T00:19:10;3.33;;;3.03;;
22070;SDS011;11200;51.488;6.668;2022-07-01T00:21:35;3.10;;;2.80;;
22070;SDS011;11200;51.488;6.668;2022-07-01T00:24:01;4.00;;;3.65;;
22070;SDS011;11200;51.488;6.668;2022-07-01T00:26:27;4.03;;;3.63;;
22070;SDS011;11200;51.488;6.668;2022-07-01T00:28:53;4.57;;;3.83;;
22070;SDS011;11200;51.488;6.668;2022-07-01T00:31:18;4.93;;;4.13;;
22070;SDS011;11200;51.488;6.668;2022-07-01T00:33:44;5.05;;;4.55;;
22070;SDS011;11200;51.488;6.668;2022-07-01T00:36:09;5.13;;;4.45;;
22070;SDS011;11200;51.488;6.668;2022-07-01T00:38:35;5.32;;;4.82;;
22070;SDS011;11200;51.488;6.668;2022-07-01T00:41:01;6.07;;;5.47;;
22070;SDS011;11200;51.488;6.668;2022-07-01T00:43:26;5.47;;;4.97;;
22070;SDS011;11200;51.488;6.668;2022-07-01T00:45:52;6.13;;;5.53;;
22070;SDS011;11200;51.488;6.668;2022-07-01T00:48:19;6.20;;;5.60;;
22070;SDS011;11200;51.488;6.668;2022-07-01T00:50:46;6.22;;;5.65;;
22070;SDS011;11200;51.488;6.668;2022-07-01T00:53:12;6.25;;;5.65;;
22070;SDS011;11200;51.488;6.668;2022-07-01T00:55:39;6.10;;;5.60;;
22070;SDS011;11200;51.488;6.668;2022-07-01T00:58:06;6.47;;;5.88;;
22070;SDS011;11200;51.488;6.668;2022-07-01T01:00:32;6.65;;;6.05;;
22070;SDS011;11200;51.488;6.668;2022-07-01T01:02:58;6.53;;;5.93;;
22070;SDS011;11200;51.488;6.668;2022-07-01T01:05:24;6.40;;;5.80;;
22070;SDS011;11200;51.488;6.668;2022-07-01T01:07:50;6.50;;;5.90;;
22070;SDS011;11200;51.488;6.668;2022-07-01T01:10:16;6.70;;;6.10;;
22070;SDS011;11200;51.488;6.668;2022-07-01T01:12:43;6.57;;;5.97;;
22070;SDS011;11200;51.488;6.668;2022-07-01T01:15:09;6.55;;;5.95;;
22070;SDS011;11200;51.488;6.668;2022-07-01T01:17:35;7.10;;;6.40;;
22070;SDS011;11200;51.488;6.668;2022-07-01T01:20:02;6.13;;;5.63;;
22070;SDS011;11200;51.488;6.668;2022-07-01T01:22:28;6.18;;;5.68;;
22070;SDS011;11200;51.488;6.668;2022-07-01T01:24:54;6.43;;;5.82;;
22070;SDS011;11200;51.488;6.668;2022-07-01T01:27:22;5.90;;;5.40;;
22070;SDS011;11200;51.488;6.668;2022-07-01T01:29:47;5.28;;;4.78;;
22070;SDS011;11200;51.488;6.668;2022-07-01T01:32:13;5.93;;;5.32;;
22070;SDS011;11200;51.488;6.668;2022-07-01T01:34:38;5.15;;;4.75;;
22070;SDS011;11200;51.488;6.668;2022-07-01T01:37:05;5.40;;;4.90;;
22070;SDS011;11200;51.488;6.668;2022-07-01T01:39:32;4.88;;;4.43;;
22070;SDS011;11200;51.488;6.668;2022-07-01T01:41:57;4.90;;;4.50;;
22070;SDS011;11200;51.488;6.668;2022-07-01T01:44:23;4.88;;;4.40;;
22070;SDS011;11200;51.488;6.668;2022-07-01T01:46:49;4.95;;;4.47;;
22070;SDS011;11200;51.488;6.668;2022-07-01T01:49:14;4.35;;;3.97;;
22070;SDS011;11200;51.488;6.668;2022-07-01T01:51:40;4.57;;;4.18;;
22070;SDS011;11200;51.488;6.668;2022-07-01T01:54:06;4.75;;;4.10;;
22070;SDS011;11200;51.488;6.668;2022-07-01T01:56:32;4.38;;;3.97;;
22070;SDS011;11200;51.488;6.668;2022-07-01T01:58:58;3.95;;;3.60;;
22070;SDS011;11200;51.488;6.668;2022-07-01T02:01:24;4.38;;;3.97;;
22070;SDS011;11200;51.488;6.668;2022-07-01T02:03:51;4.18;;;3.78;;
22070;SDS011;11200;51.488;6.668;2022-07-01T02:06:18;3.78;;;3.47;;
22070;SDS011;11200;51.488;6.668;2022-07-01T02:08:44;4.00;;;3.60;;
22070;SDS011;11200;51.488;6.668;2022-07-01T02:11:10;4.03;;;3.63;;
22070;SDS011;11200;51.488;6.668;2022-07-01T02:13:37;5.38;;;4.18;;
22070;SDS011;11200;51.488;6.668;2022-07-01T02:16:03;3.88;;;3.58;;
22070;SDS011;11200;51.488;6.668;2022-07-01T02:18:29;3.35;;;3.05;;
22070;SDS011;11200;51.488;6.668;2022-07-01T02:20:55;3.65;;;3.25;;
22070;SDS011;11200;51.488;6.668;2022-07-01T02:23:21;4.65;;;3.30;;
22070;SDS011;11200;51.488;6.668;2022-07-01T02:25:47;4.85;;;3.25;;
22070;SDS011;11200;51.488;6.668;2022-07-01T02:28:13;3.58;;;3.28;;
22070;SDS011;11200;51.488;6.668;2022-07-01T02:30:39;3.90;;;3.38;;
22070;SDS011;11200;51.488;6.668;2022-07-01T02:33:05;4.05;;;3.10;;
22070;SDS011;11200;51.488;6.668;2022-07-01T02:35:32;3.75;;;3.20;;
22070;SDS011;11200;51.488;6.668;2022-07-01T02:37:58;3.65;;;3.00;;
22070;SDS011;11200;51.488;6.668;2022-07-01T02:40:24;4.05;;;3.08;;
22070;SDS011;11200;51.488;6.668;2022-07-01T02:42:50;3.30;;;3.00;;
22070;SDS011;11200;51.488;6.668;2022-07-01T02:45:15;4.78;;;3.28;;
22070;SDS011;11200;51.488;6.668;2022-07-01T02:47:41;3.90;;;3.40;;
22070;SDS011;11200;51.488;6.668;2022-07-01T02:50:08;4.30;;;3.38;;
22070;SDS011;11200;51.488;6.668;2022-07-01T02:52:36;3.85;;;3.10;;
22070;SDS011;11200;51.488;6.668;2022-07-01T02:55:03;7.32;;;4.20;;
22070;SDS011;11200;51.488;6.668;2022-07-01T02:57:30;4.13;;;3.38;;
22070;SDS011;11200;51.488;6.668;2022-07-01T02:59:56;5.05;;;3.13;;
22070;SDS011;11200;51.488;6.668;2022-07-01T03:02:22;4.00;;;3.50;;
22070;SDS011;11200;51.488;6.668;2022-07-01T03:04:48;4.75;;;3.55;;
22070;SDS011;11200;51.488;6.668;2022-07-01T03:07:15;4.63;;;3.38;;
22070;SDS011;11200;51.488;6.668;2022-07-01T03:09:41;4.03;;;3.40;;
22070;SDS011;11200;51.488;6.668;2022-07-01T03:12:08;4.63;;;3.50;;
22070;SDS011;11200;51.488;6.668;2022-07-01T03:14:54;5.32;;;3.92;;
22070;SDS011;11200;51.488;6.668;2022-07-01T03:17:32;7.78;;;4.20;;
22070;SDS011;11200;51.488;6.668;2022-07-01T03:19:59;4.43;;;3.80;;
22070;SDS011;11200;51.488;6.668;2022-07-01T03:22:26;5.65;;;3.80;;
22070;SDS011;11200;51.488;6.668;2022-07-01T03:24:54;3.95;;;3.50;;
22070;SDS011;11200;51.488;6.668;2022-07-01T03:27:20;4.22;;;3.58;;
22070;SDS011;11200;51.488;6.668;2022-07-01T03:29:46;4.97;;;4.18;;
22070;SDS011;11200;51.488;6.668;2022-07-01T03:32:12;5.15;;;3.90;;
22070;SDS011;11200;51.488;6.668;2022-07-01T03:34:39;4.90;;;3.67;;
22070;SDS011;11200;51.488;6.668;2022-07-01T03:37:06;4.68;;;3.90;;
22070;SDS011;11200;51.488;6.668;2022-07-01T03:39:32;5.40;;;3.80;;
22070;SDS011;11200;51.488;6.668;2022-07-01T03:41:58;4.93;;;3.63;;
22070;SDS011;11200;51.488;6.668;2022-07-01T03:44:24;4.97;;;3.80;;
22070;SDS011;11200;51.488;6.668;2022-07-01T03:46:50;5.05;;;3.83;;
22070;SDS011;11200;51.488;6.668;2022-07-01T03:49:16;3.97;;;3.58;;
22070;SDS011;11200;51.488;6.668;2022-07-01T03:51:41;4.72;;;3.92;;
22070;SDS011;11200;51.488;6.668;2022-07-01T03:54:07;5.03;;;3.83;;
22070;SDS011;11200;51.488;6.668;2022-07-01T03:56:51;4.68;;;3.60;;
22070;SDS011;11200;51.488;6.668;2022-07-01T03:59:17;4.95;;;3.90;;
22070;SDS011;11200;51.488;6.668;2022-07-01T04:01:42;4.25;;;3.35;;
22070;SDS011;11200;51.488;6.668;2022-07-01T04:04:08;4.55;;;3.58;;
22070;SDS011;11200;51.488;6.668;2022-07-01T04:06:34;5.72;;;3.53;;
22070;SDS011;11200;51.488;6.668;2022-07-01T04:09:00;4.10;;;3.70;;
22070;SDS011;11200;51.488;6.668;2022-07-01T04:11:26;4.78;;;3.70;;
22070;SDS011;11200;51.488;6.668;2022-07-01T04:13:51;4.97;;;3.47;;
22070;SDS011;11200;51.488;6.668;2022-07-01T04:16:18;4.90;;;3.70;;
22070;SDS011;11200;51.488;6.668;2022-07-01T04:18:44;4.25;;;3.40;;
22070;SDS011;11200;51.488;6.668;2022-07-01T04:21:13;5.40;;;3.65;;
22070;SDS011;11200;51.488;6.668;2022-07-01T04:23:57;5.28;;;4.03;;
22070;SDS011;11200;51.488;6.668;2022-07-01T04:26:23;4.82;;;3.35;;
22070;SDS011;11200;51.488;6.668;2022-07-01T04:28:50;4.43;;;3.30;;
22070;SDS011;11200;51.488;6.668;2022-07-01T04:31:16;5.43;;;3.50;;
22070;SDS011;11200;51.488;6.668;2022-07-01T04:33:42;4.70;;;3.67;;
22070;SDS011;11200;51.488;6.668;2022-07-01T04:36:08;3.97;;;3.50;;
22070;SDS011;11200;51.488;6.668;2022-07-01T04:38:33;5.43;;;3.58;;
22070;SDS011;11200;51.488;6.668;2022-07-01T04:40:59;4.05;;;3.50;;
22070;SDS011;11200;51.488;6.668;2022-07-01T04:43:43;4.50;;;3.47;;
22070;SDS011;11200;51.488;6.668;2022-07-01T04:46:09;5.13;;;3.47;;
22070;SDS011;11200;51.488;6.668;2022-07-01T04:48:35;3.78;;;3.47;;
22070;SDS011;11200;51.488;6.668;2022-07-01T04:51:00;4.93;;;3.55;;
22070;SDS011;11200;51.488;6.668;2022-07-01T04:53:26;4.15;;;3.35;;
22070;SDS011;11200;51.488;6.668;2022-07-01T04:55:52;4.18;;;3.72;;
22070;SDS011;11200;51.488;6.668;2022-07-01T04:58:17;3.78;;;3.35;;
22070;SDS011;11200;51.488;6.668;2022-07-01T05:00:43;4.50;;;3.70;;
22070;SDS011;11200;51.488;6.668;2022-07-01T05:03:08;5.32;;;3.75;;
22070;SDS011;11200;51.488;6.668;2022-07-01T05:05:34;4.30;;;3.40;;
22070;SDS011;11200;51.488;6.668;2022-07-01T05:07:59;4.82;;;3.60;;
22070;SDS011;11200;51.488;6.668;2022-07-01T05:10:25;3.67;;;3.08;;
22070;SDS011;11200;51.488;6.668;2022-07-01T05:12:51;3.92;;;3.50;;
22070;SDS011;11200;51.488;6.668;2022-07-01T05:15:16;3.80;;;3.40;;
22070;SDS011;11200;51.488;6.668;2022-07-01T05:17:42;4.75;;;3.35;;
22070;SDS011;11200;51.488;6.668;2022-07-01T05:20:26;5.13;;;3.53;;
22070;SDS011;11200;51.488;6.668;2022-07-01T05:23:10;4.90;;;3.58;;
22070;SDS011;11200;51.488;6.668;2022-07-01T05:25:35;4.80;;;3.80;;
22070;SDS011;11200;51.488;6.668;2022-07-01T05:28:02;5.28;;;3.40;;
22070;SDS011;11200;51.488;6.668;2022-07-01T05:30:29;4.03;;;3.50;;
22070;SDS011;11200;51.488;6.668;2022-07-01T05:32:54;5.25;;;4.28;;
22070;SDS011;11200;51.488;6.668;2022-07-01T05:35:20;4.40;;;3.97;;
22070;SDS011;11200;51.488;6.668;2022-07-01T05:37:45;5.57;;;3.42;;
22070;SDS011;11200;51.488;6.668;2022-07-01T05:40:11;3.97;;;3.03;;
22070;SDS011;11200;51.488;6.668;2022-07-01T05:42:37;4.05;;;3.50;;
22070;SDS011;11200;51.488;6.668;2022-07-01T05:45:03;4.00;;;2.92;;
22070;SDS011;11200;51.488;6.668;2022-07-01T05:47:29;2.92;;;2.63;;
22070;SDS011;11200;51.488;6.668;2022-07-01T05:49:54;4.07;;;2.75;;
22070;SDS011;11200;51.488;6.668;2022-07-01T05:52:20;4.05;;;3.05;;
22070;SDS011;11200;51.488;6.668;2022-07-01T05:54:46;3.30;;;3.00;;
22070;SDS011;11200;51.488;6.668;2022-07-01T05:57:11;4.25;;;3.30;;
22070;SDS011;11200;51.488;6.668;2022-07-01T05:59:37;3.55;;;2.72;;
22070;SDS011;11200;51.488;6.668;2022-07-01T06:02:03;4.50;;;2.95;;
22070;SDS011;11200;51.488;6.668;2022-07-01T06:04:28;4.32;;;3.17;;
22070;SDS011;11200;51.488;6.668;2022-07-01T06:06:54;3.42;;;3.00;;
22070;SDS011;11200;51.488;6.668;2022-07-01T06:09:20;3.88;;;2.75;;
22070;SDS011;11200;51.488;6.668;2022-07-01T06:11:45;3.13;;;2.58;;
22070;SDS011;11200;51.488;6.668;2022-07-01T06:14:11;3.08;;;2.60;;
22070;SDS011;11200;51.488;6.668;2022-07-01T06:16:37;4.03;;;2.92;;
22070;SDS011;11200;51.488;6.668;2022-07-01T06:19:06;3.72;;;2.60;;
22070;SDS011;11200;51.488;6.668;2022-07-01T06:21:32;3.33;;;3.03;;
22070;SDS011;11200;51.488;6.668;2022-07-01T06:23:57;4.38;;;2.97;;
22070;SDS011;11200;51.488;6.668;2022-07-01T06:26:23;3.55;;;2.95;;
22070;SDS011;11200;51.488;6.668;2022-07-01T06:28:49;5.25;;;3.13;;
22070;SDS011;11200;51.488;6.668;2022-07-01T06:31:15;3.85;;;2.90;;
22070;SDS011;11200;51.488;6.668;2022-07-01T06:33:41;3.28;;;2.95;;
22070;SDS011;11200;51.488;6.668;2022-07-01T06:36:06;3.85;;;2.85;;
22070;SDS011;11200;51.488;6.668;2022-07-01T06:38:32;4.30;;;2.60;;
22070;SDS011;11200;51.488;6.668;2022-07-01T06:40:57;4.15;;;2.70;;
22070;SDS011;11200;51.488;6.668;2022-07-01T06:43:42;2.78;;;2.50;;
22070;SDS011;11200;51.488;6.668;2022-07-01T06:46:08;3.75;;;2.60;;
22070;SDS011;11200;51.488;6.668;2022-07-01T06:48:34;3.40;;;2.75;;
22070;SDS011;11200;51.488;6.668;2022-07-01T06:51:00;3.22;;;2.63;;
22070;SDS011;11200;51.488;6.668;2022-07-01T06:53:27;2.80;;;2.55;;
22070;SDS011;11200;51.488;6.668;2022-07-01T06:55:52;3.72;;;2.50;;
22070;SDS011;11200;51.488;6.668;2022-07-01T06:58:18;3.38;;;2.65;;
22070;SDS011;11200;51.488;6.668;2022-07-01T07:00:44;2.55;;;2.33;;
22070;SDS011;11200;51.488;6.668;2022-07-01T07:03:09;2.58;;;2.22;;
22070;SDS011;11200;51.488;6.668;2022-07-01T07:05:35;3.72;;;2.33;;
22070;SDS011;11200;51.488;6.668;2022-07-01T07:08:00;3.17;;;2.70;;
22070;SDS011;11200;51.488;6.668;2022-07-01T07:10:27;3.88;;;2.45;;
22070;SDS011;11200;51.488;6.668;2022-07-01T07:12:52;5.00;;;2.67;;
22070;SDS011;11200;51.488;6.668;2022-07-01T07:15:18;3.13;;;2.40;;
22070;SDS011;11200;51.488;6.668;2022-07-01T07:17:44;3.08;;;2.58;;
22070;SDS011;11200;51.488;6.668;2022-07-01T07:20:10;5.45;;;3.10;;
22070;SDS011;11200;51.488;6.668;2022-07-01T07:22:36;2.80;;;2.50;;
22070;SDS011;11200;51.488;6.668;2022-07-01T07:25:01;4.50;;;2.65;;
22070;SDS011;11200;51.488;6.668;2022-07-01T07:27:27;3.80;;;2.78;;
22070;SDS011;11200;51.488;6.668;2022-07-01T07:29:53;3.10;;;2.65;;
22070;SDS011;11200;51.488;6.668;2022-07-01T07:32:19;2.88;;;2.50;;
22070;SDS011;11200;51.488;6.668;2022-07-01T07:34:44;4.00;;;2.45;;
22070;SDS011;11200;51.488;6.668;2022-07-01T07:37:10;2.97;;;2.65;;
22070;SDS011;11200;51.488;6.668;2022-07-01T07:39:35;4.25;;;2.70;;
22070;SDS011;11200;51.488;6.668;2022-07-01T07:42:01;2.85;;;2.55;;
22070;SDS011;11200;51.488;6.668;2022-07-01T07:44:27;3.10;;;2.40;;
22070;SDS011;11200;51.488;6.668;2022-07-01T07:46:52;3.03;;;2.40;;
22070;SDS011;11200;51.488;6.668;2022-07-01T07:49:18;3.30;;;2.47;;
22070;SDS011;11200;51.488;6.668;2022-07-01T07:51:44;2.90;;;2.70;;
22070;SDS011;11200;51.488;6.668;2022-07-01T07:54:09;3.72;;;2.70;;
22070;SDS011;11200;51.488;6.668;2022-07-01T07:56:35;2.90;;;2.45;;
22070;SDS011;11200;51.488;6.668;2022-07-01T07:59:01;3.85;;;2.47;;
22070;SDS011;11200;51.488;6.668;2022-07-01T08:01:26;3.75;;;2.50;;
22070;SDS011;11200;51.488;6.668;2022-07-01T08:03:52;2.88;;;2.45;;
22070;SDS011;11200;51.488;6.668;2022-07-01T08:06:17;3.00;;;2.63;;
22070;SDS011;11200;51.488;6.668;2022-07-01T08:08:43;3.30;;;2.63;;
22070;SDS011;11200;51.488;6.668;2022-07-01T08:11:10;4.28;;;2.63;;
22070;SDS011;11200;51.488;6.668;2022-07-01T08:13:36;2.80;;;2.47;;
22070;SDS011;11200;51.488;6.668;2022-07-01T08:16:01;2.70;;;2.40;;
22070;SDS011;11200;51.488;6.668;2022-07-01T08:18:27;3.03;;;2.58;;
22070;SDS011;11200;51.488;6.668;2022-07-01T08:20:53;2.90;;;2.08;;
22070;SDS011;11200;51.488;6.668;2022-07-01T08:23:22;2.88;;;2.20;;
22070;SDS011;11200;51.488;6.668;2022-07-01T08:25:48;2.35;;;2.00;;
22070;SDS011;11200;51.488;6.668;2022-07-01T08:28:14;2.33;;;2.08;;
22070;SDS011;11200;51.488;6.668;2022-07-01T08:30:40;3.05;;;2.38;;
22070;SDS011;11200;51.488;6.668;2022-07-01T08:33:05;3.10;;;2.30;;
22070;SDS011;11200;51.488;6.668;2022-07-01T08:35:31;2.33;;;1.98;;
22070;SDS011;11200;51.488;6.668;2022-07-01T08:37:57;2.83;;;2.50;;
22070;SDS011;11200;51.488;6.668;2022-07-01T08:40:29;2.88;;;2.40;;
22070;SDS011;11200;51.488;6.668;2022-07-01T08:42:59;2.58;;;2.38;;
22070;SDS011;11200;51.488;6.668;2022-07-01T08:45:30;2.25;;;2.05;;
22070;SDS011;11200;51.488;6.668;2022-07-01T08:47:59;3.95;;;2.08;;
22070;SDS011;11200;51.488;6.668;2022-07-01T08:50:29;3.15;;;2.20;;
22070;SDS011;11200;51.488;6.668;2022-07-01T08:52:59;4.15;;;1.80;;
22070;SDS011;11200;51.488;6.668;2022-07-01T08:55:24;2.95;;;2.15;;
22070;SDS011;11200;51.488;6.668;2022-07-01T08:57:51;4.25;;;2.05;;
22070;SDS011;11200;51.488;6.668;2022-07-01T09:00:18;2.17;;;1.90;;
22070;SDS011;11200;51.488;6.668;2022-07-01T09:05:17;2.25;;;1.90;;
22070;SDS011;11200;51.488;6.668;2022-07-01T09:07:43;2.50;;;1.73;;
22070;SDS011;11200;51.488;6.668;2022-07-01T09:10:13;2.72;;;1.90;;
22070;SDS011;11200;51.488;6.668;2022-07-01T09:12:44;2.25;;;1.80;;
22070;SDS011;11200;51.488;6.668;2022-07-01T09:15:20;2.63;;;1.60;;
22070;SDS011;11200;51.488;6.668;2022-07-01T09:17:51;2.45;;;1.65;;
22070;SDS011;11200;51.488;6.668;2022-07-01T09:20:22;1.90;;;1.80;;
22070;SDS011;11200;51.488;6.668;2022-07-01T09:23:13;2.05;;;1.50;;
22070;SDS011;11200;51.488;6.668;2022-07-01T09:25:41;1.83;;;1.50;;
22070;SDS011;11200;51.488;6.668;2022-07-01T09:28:16;1.50;;;1.40;;
22070;SDS011;11200;51.488;6.668;2022-07-01T09:30:45;2.42;;;1.75;;
22070;SDS011;11200;51.488;6.668;2022-07-01T09:33:16;2.13;;;1.58;;
22070;SDS011;11200;51.488;6.668;2022-07-01T09:35:47;2.47;;;1.50;;
22070;SDS011;11200;51.488;6.668;2022-07-01T09:38:19;2.72;;;1.38;;
22070;SDS011;11200;51.488;6.668;2022-07-01T09:40:51;1.40;;;1.30;;
22070;SDS011;11200;51.488;6.668;2022-07-01T09:43:24;1.90;;;1.50;;
22070;SDS011;11200;51.488;6.668;2022-07-01T09:46:01;2.03;;;1.30;;
22070;SDS011;11200;51.488;6.668;2022-07-01T09:51:01;2.30;;;1.30;;
22070;SDS011;11200;51.488;6.668;2022-07-01T09:53:27;3.65;;;1.40;;
22070;SDS011;11200;51.488;6.668;2022-07-01T09:55:53;3.30;;;1.40;;
22070;SDS011;11200;51.488;6.668;2022-07-01T09:58:19;2.92;;;1.10;;
22070;SDS011;11200;51.488;6.668;2022-07-01T10:00:45;1.80;;;1.30;;
22070;SDS011;11200;51.488;6.668;2022-07-01T10:03:11;3.10;;;1.30;;
22070;SDS011;11200;51.488;6.668;2022-07-01T10:14:37;1.77;;;1.13;;
22070;SDS011;11200;51.488;6.668;2022-07-01T10:17:05;1.67;;;1.10;;
22070;SDS011;11200;51.488;6.668;2022-07-01T10:19:31;2.00;;;1.20;;
22070;SDS011;11200;51.488;6.668;2022-07-01T10:24:51;2.25;;;1.20;;
22070;SDS011;11200;51.488;6.668;2022-07-01T10:27:21;1.25;;;1.00;;
22070;SDS011;11200;51.488;6.668;2022-07-01T10:29:47;2.22;;;1.20;;
22070;SDS011;11200;51.488;6.668;2022-07-01T10:35:02;1.63;;;1.05;;
22070;SDS011;11200;51.488;6.668;2022-07-01T10:37:31;1.15;;;0.98;;
22070;SDS011;11200;51.488;6.668;2022-07-01T10:42:27;1.80;;;1.00;;
22070;SDS011;11200;51.488;6.668;2022-07-01T10:47:33;2.05;;;1.30;;
22070;SDS011;11200;51.488;6.668;2022-07-01T10:50:03;1.58;;;1.00;;
22070;SDS011;11200;51.488;6.668;2022-07-01T10:52:33;1.73;;;1.05;;
22070;SDS011;11200;51.488;6.668;2022-07-01T10:55:00;1.67;;;0.90;;
22070;SDS011;11200;51.488;6.668;2022-07-01T10:57:28;2.00;;;1.10;;
22070;SDS011;11200;51.488;6.668;2022-07-01T11:00:24;1.88;;;1.00;;
22070;SDS011;11200;51.488;6.668;2022-07-01T11:02:45;1.35;;;1.00;;
22070;SDS011;11200;51.488;6.668;2022-07-01T11:05:14;1.38;;;1.00;;
22070;SDS011;11200;51.488;6.668;2022-07-01T11:07:41;1.55;;;1.00;;
22070;SDS011;11200;51.488;6.668;2022-07-01T11:10:09;1.67;;;1.00;;
22070;SDS011;11200;51.488;6.668;2022-07-01T11:12:36;1.17;;;0.85;;
22070;SDS011;11200;51.488;6.668;2022-07-01T11:15:03;1.42;;;1.05;;
22070;SDS011;11200;51.488;6.668;2022-07-01T11:17:35;1.50;;;1.00;;
22070;SDS011;11200;51.488;6.668;2022-07-01T11:20:12;1.65;;;0.90;;
22070;SDS011;11200;51.488;6.668;2022-07-01T11:22:38;1.33;;;0.77;;
22070;SDS011;11200;51.488;6.668;2022-07-01T11:25:05;2.47;;;0.82;;
22070;SDS011;11200;51.488;6.668;2022-07-01T11:27:32;1.70;;;1.08;;
22070;SDS011;11200;51.488;6.668;2022-07-01T11:29:59;1.38;;;0.82;;
22070;SDS011;11200;51.488;6.668;2022-07-01T11:32:37;1.52;;;0.98;;
22070;SDS011;11200;51.488;6.668;2022-07-01T11:35:07;2.08;;;0.93;;
22070;SDS011;11200;51.488;6.668;2022-07-01T11:38:07;1.42;;;0.88;;
22070;SDS011;11200;51.488;6.668;2022-07-01T11:41:03;1.38;;;0.90;;
22070;SDS011;11200;51.488;6.668;2022-07-01T11:43:31;1.33;;;0.90;;
22070;SDS011;11200;51.488;6.668;2022-07-01T11:46:03;2.25;;;1.02;;
22070;SDS011;11200;51.488;6.668;2022-07-01T11:48:30;1.77;;;1.10;;
22070;SDS011;11200;51.488;6.668;2022-07-01T11:50:57;1.45;;;0.90;;
22070;SDS011;11200;51.488;6.668;2022-07-01T11:53:24;1.98;;;1.05;;
22070;SDS011;11200;51.488;6.668;2022-07-01T11:55:50;1.35;;;0.80;;
22070;SDS011;11200;51.488;6.668;2022-07-01T11:58:16;1.70;;;0.90;;
22070;SDS011;11200;51.488;6.668;2022-07-01T12:00:42;2.03;;;0.90;;
22070;SDS011;11200;51.488;6.668;2022-07-01T12:03:10;1.80;;;0.90;;
22070;SDS011;11200;51.488;6.668;2022-07-01T12:05:39;1.13;;;0.75;;
22070;SDS011;11200;51.488;6.668;2022-07-01T12:08:07;1.27;;;0.80;;
22070;SDS011;11200;51.488;6.668;2022-07-01T12:10:32;0.80;;;0.70;;
22070;SDS011;11200;51.488;6.668;2022-07-01T12:13:20;2.50;;;0.80;;
22070;SDS011;11200;51.488;6.668;2022-07-01T12:15:49;1.70;;;0.70;;
22070;SDS011;11200;51.488;6.668;2022-07-01T12:18:15;2.65;;;0.90;;
22070;SDS011;11200;51.488;6.668;2022-07-01T12:20:48;2.00;;;0.90;;
22070;SDS011;11200;51.488;6.668;2022-07-01T12:23:23;1.88;;;0.70;;
22070;SDS011;11200;51.488;6.668;2022-07-01T12:25:49;2.20;;;1.00;;
22070;SDS011;11200;51.488;6.668;2022-07-01T12:28:26;1.48;;;0.80;;
22070;SDS011;11200;51.488;6.668;2022-07-01T12:31:03;1.25;;;0.80;;
22070;SDS011;11200;51.488;6.668;2022-07-01T12:33:28;2.20;;;0.88;;
22070;SDS011;11200;51.488;6.668;2022-07-01T12:35:54;2.75;;;0.85;;
22070;SDS011;11200;51.488;6.668;2022-07-01T12:38:21;1.60;;;0.90;;
22070;SDS011;11200;51.488;6.668;2022-07-01T12:40:47;0.98;;;0.70;;
22070;SDS011;11200;51.488;6.668;2022-07-01T12:43:26;1.33;;;0.80;;
22070;SDS011;11200;51.488;6.668;2022-07-01T12:45:54;1.70;;;0.70;;
22070;SDS011;11200;51.488;6.668;2022-07-01T12:48:23;1.30;;;0.75;;
22070;SDS011;11200;51.488;6.668;2022-07-01T12:50:51;1.58;;;0.63;;
22070;SDS011;11200;51.488;6.668;2022-07-01T12:53:18;2.53;;;0.80;;
22070;SDS011;11200;51.488;6.668;2022-07-01T12:55:46;2.17;;;0.70;;
22070;SDS011;11200;51.488;6.668;2022-07-01T12:58:15;1.38;;;0.65;;
22070;SDS011;11200;51.488;6.668;2022-07-01T13:00:47;1.08;;;0.80;;
22070;SDS011;11200;51.488;6.668;2022-07-01T13:03:25;3.75;;;0.80;;
22070;SDS011;11200;51.488;6.668;2022-07-01T13:05:52;1.27;;;0.70;;
22070;SDS011;11200;51.488;6.668;2022-07-01T13:08:19;2.97;;;0.80;;
22070;SDS011;11200;51.488;6.668;2022-07-01T13:10:46;2.00;;;1.10;;
22070;SDS011;11200;51.488;6.668;2022-07-01T13:13:13;1.80;;;0.70;;
22070;SDS011;11200;51.488;6.668;2022-07-01T13:15:39;1.23;;;0.80;;
22070;SDS011;11200;51.488;6.668;2022-07-01T13:18:05;1.23;;;0.80;;
22070;SDS011;11200;51.488;6.668;2022-07-01T13:20:31;2.08;;;0.93;;
22070;SDS011;11200;51.488;6.668;2022-07-01T13:22:57;2.05;;;0.93;;
22070;SDS011;11200;51.488;6.668;2022-07-01T13:25:23;1.88;;;0.80;;
22070;SDS011;11200;51.488;6.668;2022-07-01T13:27:49;2.80;;;0.80;;
22070;SDS011;11200;51.488;6.668;2022-07-01T13:30:16;2.70;;;0.90;;
22070;SDS011;11200;51.488;6.668;2022-07-01T13:32:43;1.02;;;0.70;;
22070;SDS011;11200;51.488;6.668;2022-07-01T13:35:10;1.20;;;0.77;;
22070;SDS011;11200;51.488;6.668;2022-07-01T13:37:37;1.60;;;0.82;;
22070;SDS011;11200;51.488;6.668;2022-07-01T13:40:04;1.52;;;0.82;;
22070;SDS011;11200;51.488;6.668;2022-07-01T13:42:30;1.67;;;0.80;;
22070;SDS011;11200;51.488;6.668;2022-07-01T13:44:56;1.15;;;0.90;;
22070;SDS011;11200;51.488;6.668;2022-07-01T13:47:22;1.63;;;0.75;;
22070;SDS011;11200;51.488;6.668;2022-07-01T13:49:48;2.38;;;0.70;;
22070;SDS011;11200;51.488;6.668;2022-07-01T13:52:14;2.47;;;1.02;;
22070;SDS011;11200;51.488;6.668;2022-07-01T13:54:40;1.27;;;0.88;;
22070;SDS011;11200;51.488;6.668;2022-07-01T13:57:06;2.83;;;1.00;;
22070;SDS011;11200;51.488;6.668;2022-07-01T13:59:32;2.42;;;0.90;;
22070;SDS011;11200;51.488;6.668;2022-07-01T14:01:57;2.05;;;0.90;;
22070;SDS011;11200;51.488;6.668;2022-07-01T14:04:23;1.27;;;0.80;;
22070;SDS011;11200;51.488;6.668;2022-07-01T14:06:49;2.00;;;0.80;;
22070;SDS011;11200;51.488;6.668;2022-07-01T14:09:15;2.08;;;0.93;;
22070;SDS011;11200;51.488;6.668;2022-07-01T14:11:40;1.10;;;0.85;;
22070;SDS011;11200;51.488;6.668;2022-07-01T14:14:06;1.77;;;0.80;;
22070;SDS011;11200;51.488;6.668;2022-07-01T14:16:32;1.52;;;0.80;;
22070;SDS011;11200;51.488;6.668;2022-07-01T14:18:58;1.73;;;1.00;;
22070;SDS011;11200;51.488;6.668;2022-07-01T14:21:23;1.77;;;0.90;;
22070;SDS011;11200;51.488;6.668;2022-07-01T14:23:49;2.05;;;1.00;;
22070;SDS011;11200;51.488;6.668;2022-07-01T14:26:15;0.88;;;0.75;;
22070;SDS011;11200;51.488;6.668;2022-07-01T14:28:41;1.70;;;0.75;;
22070;SDS011;11200;51.488;6.668;2022-07-01T14:31:07;4.07;;;1.10;;
22070;SDS011;11200;51.488;6.668;2022-07-01T14:33:33;1.77;;;0.90;;
22070;SDS011;11200;51.488;6.668;2022-07-01T14:35:58;2.22;;;1.10;;
22070;SDS011;11200;51.488;6.668;2022-07-01T14:38:24;1.83;;;1.00;;
22070;SDS011;11200;51.488;6.668;2022-07-01T14:40:50;1.65;;;0.85;;
22070;SDS011;11200;51.488;6.668;2022-07-01T14:43:16;2.33;;;1.08;;
22070;SDS011;11200;51.488;6.668;2022-07-01T14:45:42;1.30;;;0.90;;
22070;SDS011;11200;51.488;6.668;2022-07-01T14:48:07;1.48;;;0.90;;
22070;SDS011;11200;51.488;6.668;2022-07-01T14:50:34;2.38;;;0.93;;
22070;SDS011;11200;51.488;6.668;2022-07-01T14:53:00;1.42;;;0.82;;
22070;SDS011;11200;51.488;6.668;2022-07-01T14:55:27;1.90;;;0.85;;
22070;SDS011;11200;51.488;6.668;2022-07-01T14:57:54;2.55;;;1.20;;
22070;SDS011;11200;51.488;6.668;2022-07-01T15:00:20;1.73;;;0.90;;
22070;SDS011;11200;51.488;6.668;2022-07-01T15:02:46;2.45;;;1.10;;
22070;SDS011;11200;51.488;6.668;2022-07-01T15:05:12;2.25;;;0.90;;
22070;SDS011;11200;51.488;6.668;2022-07-01T15:07:38;1.85;;;1.00;;
22070;SDS011;11200;51.488;6.668;2022-07-01T15:10:04;2.15;;;1.20;;
22070;SDS011;11200;51.488;6.668;2022-07-01T15:12:31;4.10;;;1.10;;
22070;SDS011;11200;51.488;6.668;2022-07-01T15:14:57;2.67;;;1.10;;